createdAt,value
2022-12-27T00:02:04.744Z,83.11
2022-12-27T00:04:31.695Z,82.19
2022-12-27T00:06:58.142Z,82.81
2022-12-27T00:09:27.585Z,82.45
2022-12-27T00:11:59.815Z,82.12
2022-12-27T00:14:27.121Z,82.30
2022-12-27T00:16:53.729Z,82.08
2022-12-27T00:19:20.273Z,81.71
2022-12-27T00:21:57.476Z,82.61
2022-12-27T00:24:26.873Z,82.49
2022-12-27T00:26:53.333Z,82.15
2022-12-27T00:29:31.494Z,82.27
2022-12-27T00:32:03.705Z,82.61
2022-12-27T00:34:30.295Z,82.70
2022-12-27T00:36:56.906Z,82.88
2022-12-27T00:39:27.082Z,82.46
2022-12-27T00:41:56.253Z,82.98
2022-12-27T00:44:22.741Z,83.04
2022-12-27T00:46:52.216Z,82.34
2022-12-27T00:49:18.760Z,82.61
2022-12-27T00:51:45.157Z,82.72
2022-12-27T00:54:11.636Z,83.28
2022-12-27T00:56:38.102Z,82.91
2022-12-27T00:59:05.551Z,83.58
2022-12-27T01:01:36.629Z,83.86
2022-12-27T01:04:04.093Z,83.68
2022-12-27T01:06:32.599Z,84.12
2022-12-27T01:09:00.981Z,83.56
2022-12-27T01:11:28.819Z,84.01
2022-12-27T01:14:00.331Z,84.22
2022-12-27T01:16:28.652Z,84.07
2022-12-27T01:18:56.147Z,84.24
2022-12-27T01:21:27.780Z,84.28
2022-12-27T01:23:55.281Z,84.26
2022-12-27T01:26:22.921Z,84.57
2022-12-27T01:28:50.154Z,84.55
2022-12-27T01:31:20.141Z,84.44
2022-12-27T01:33:47.066Z,84.84
2022-12-27T01:36:17.824Z,84.60
2022-12-27T01:38:45.405Z,84.38
2022-12-27T01:41:46.079Z,85.10
2022-12-27T01:44:53.317Z,85.53
2022-12-27T01:47:51.071Z,85.70
2022-12-27T01:50:38.569Z,85.59
2022-12-27T01:53:25.135Z,85.54
2022-12-27T01:55:59.421Z,84.89
2022-12-27T01:58:31.418Z,84.86
2022-12-27T02:00:58.910Z,85.69
2022-12-27T02:03:30.763Z,85.72
2022-12-27T02:05:59.912Z,86.02
2022-12-27T02:08:28.926Z,85.65
2022-12-27T02:10:55.665Z,85.42
2022-12-27T02:13:22.273Z,85.22
2022-12-27T02:15:48.762Z,85.44
2022-12-27T02:18:15.744Z,85.58
2022-12-27T02:21:10.382Z,85.82
2022-12-27T02:24:04.324Z,85.83
2022-12-27T02:26:40.117Z,86.25
2022-12-27T02:29:41.612Z,86.17
2022-12-27T02:32:11.223Z,85.72
2022-12-27T02:35:18.691Z,85.95
2022-12-27T02:37:52.807Z,85.97
2022-12-27T02:40:41.816Z,86.41
2022-12-27T02:43:27.579Z,86.16
2022-12-27T02:46:24.674Z,86.12
2022-12-27T02:49:15.326Z,86.40
2022-12-27T02:52:28.001Z,86.83
2022-12-27T02:54:54.341Z,86.56
2022-12-27T02:57:42.324Z,86.68
2022-12-27T03:00:39.831Z,87.00
2022-12-27T03:03:24.867Z,87.60
2022-12-27T03:06:24.707Z,87.77
2022-12-27T03:09:03.091Z,88.11
2022-12-27T03:11:55.048Z,87.83
2022-12-27T03:14:51.551Z,87.83
2022-12-27T03:17:35.309Z,88.49
2022-12-27T03:20:27.923Z,88.19
2022-12-27T03:23:15.367Z,88.80
2022-12-27T03:25:46.851Z,88.44
2022-12-27T03:28:38.938Z,88.17
2022-12-27T03:31:53.179Z,87.90
2022-12-27T03:34:35.739Z,88.90
2022-12-27T03:37:26.783Z,88.54
2022-12-27T03:39:58.981Z,88.74
2022-12-27T03:42:47.088Z,88.63
2022-12-27T03:45:14.381Z,88.22
2022-12-27T03:47:51.460Z,89.00
2022-12-27T03:50:35.403Z,88.76
2022-12-27T03:53:09.759Z,88.88
2022-12-27T03:55:37.654Z,88.52
2022-12-27T03:58:04.669Z,88.42
2022-12-27T04:00:31.128Z,88.16
2022-12-27T04:02:57.631Z,87.84
2022-12-27T04:05:24.147Z,87.63
2022-12-27T04:08:09.312Z,87.84
2022-12-27T04:10:54.119Z,88.31
2022-12-27T04:13:38.964Z,88.17
2022-12-27T04:16:24.293Z,88.01
2022-12-27T04:19:09.095Z,87.70
2022-12-27T04:21:54.058Z,87.33
2022-12-27T04:24:38.802Z,87.28
2022-12-27T04:27:23.680Z,87.76
2022-12-27T04:30:08.482Z,87.38
2022-12-27T04:32:53.312Z,87.49
2022-12-27T04:35:19.739Z,87.93
2022-12-27T04:37:46.195Z,87.97
2022-12-27T04:40:30.990Z,87.93
2022-12-27T04:43:15.757Z,88.03
2022-12-27T04:46:01.018Z,88.27
2022-12-27T04:48:48.391Z,87.57
2022-12-27T04:51:34.032Z,88.35
2022-12-27T04:54:18.749Z,88.73
2022-12-27T04:56:45.139Z,88.55
2022-12-27T04:59:29.881Z,88.25
2022-12-27T05:02:05.469Z,87.39
2022-12-27T05:04:35.239Z,88.12
2022-12-27T05:07:24.952Z,87.96
2022-12-27T05:10:10.299Z,88.57
2022-12-27T05:12:55.208Z,88.14
2022-12-27T05:15:21.725Z,88.51
2022-12-27T05:17:48.273Z,88.48
2022-12-27T05:20:14.733Z,89.04
2022-12-27T05:22:59.617Z,89.13
2022-12-27T05:25:34.727Z,89.04
2022-12-27T05:28:01.947Z,88.19
2022-12-27T05:30:28.351Z,88.62
2022-12-27T05:32:55.550Z,88.20
2022-12-27T05:35:22.408Z,88.86
2022-12-27T05:37:54.769Z,88.28
2022-12-27T05:40:22.786Z,88.73
2022-12-27T05:42:49.216Z,89.07
2022-12-27T05:45:15.735Z,88.97
2022-12-27T05:47:42.455Z,88.85
2022-12-27T05:50:09.645Z,88.88
2022-12-27T05:52:40.945Z,88.84
2022-12-27T05:55:08.201Z,88.92
2022-12-27T05:57:34.585Z,89.02
2022-12-27T06:00:01.077Z,89.52
2022-12-27T06:02:27.534Z,89.37
2022-12-27T06:04:54.012Z,89.34
2022-12-27T06:07:20.389Z,89.12
2022-12-27T06:09:46.800Z,89.11
2022-12-27T06:12:13.373Z,89.18
2022-12-27T06:14:41.312Z,88.95
2022-12-27T06:17:07.930Z,89.20
2022-12-27T06:19:34.454Z,88.81
2022-12-27T06:22:00.802Z,88.19
2022-12-27T06:24:27.183Z,88.85
2022-12-27T06:26:53.630Z,88.32
2022-12-27T06:29:20.051Z,88.38
2022-12-27T06:31:46.976Z,88.78
2022-12-27T06:34:13.351Z,88.39
2022-12-27T06:36:39.789Z,88.65
2022-12-27T06:39:06.256Z,87.49
2022-12-27T06:41:32.638Z,87.31
2022-12-27T06:43:59.119Z,87.56
2022-12-27T06:46:25.663Z,87.25
2022-12-27T06:48:52.608Z,87.55
2022-12-27T06:51:20.908Z,87.84
2022-12-27T06:53:48.164Z,88.36
2022-12-27T06:56:18.016Z,87.86
2022-12-27T06:58:48.446Z,88.10
2022-12-27T07:01:16.737Z,87.91
2022-12-27T07:03:43.896Z,87.25
2022-12-27T07:06:13.764Z,87.76
2022-12-27T07:08:40.215Z,87.86
2022-12-27T07:11:09.793Z,87.58
2022-12-27T07:13:38.587Z,87.80
2022-12-27T07:16:11.401Z,88.40
2022-12-27T07:18:38.245Z,88.55
2022-12-27T07:21:10.126Z,88.77
2022-12-27T07:23:37.124Z,88.75
2022-12-27T07:26:05.727Z,88.11
2022-12-27T07:28:32.600Z,87.95
2022-12-27T07:30:59.651Z,87.52
2022-12-27T07:33:26.389Z,87.51
2022-12-27T07:36:00.683Z,87.06
2022-12-27T07:38:27.580Z,87.79
2022-12-27T07:40:54.109Z,87.04
2022-12-27T07:43:20.809Z,88.26
2022-12-27T07:45:47.346Z,87.92
2022-12-27T07:48:13.939Z,87.46
2022-12-27T07:50:40.365Z,87.65
2022-12-27T07:53:06.824Z,87.59
2022-12-27T07:55:33.465Z,87.38
2022-12-27T07:57:59.899Z,86.79
2022-12-27T08:00:28.145Z,86.49
2022-12-27T08:02:54.881Z,86.03
2022-12-27T08:05:25.944Z,85.95
2022-12-27T08:07:54.470Z,85.23
2022-12-27T08:10:20.936Z,85.05
2022-12-27T08:12:47.398Z,83.38
2022-12-27T08:15:13.896Z,82.75
2022-12-27T08:17:40.361Z,80.48
2022-12-27T08:20:07.499Z,78.98
2022-12-27T08:22:34.221Z,78.19
2022-12-27T08:25:00.612Z,77.65
2022-12-27T08:27:27.075Z,78.66
2022-12-27T08:29:53.505Z,77.13
2022-12-27T08:32:20.072Z,75.98
2022-12-27T08:34:46.541Z,75.39
2022-12-27T08:37:13.070Z,73.46
2022-12-27T08:39:39.552Z,71.84
2022-12-27T08:42:06.105Z,70.49
2022-12-27T08:44:37.175Z,70.89
2022-12-27T08:47:04.481Z,72.32
2022-12-27T08:49:31.145Z,74.73
2022-12-27T08:51:57.687Z,73.26
2022-12-27T08:54:24.859Z,74.69
2022-12-27T08:56:51.468Z,72.81
2022-12-27T08:59:17.948Z,70.23
2022-12-27T09:01:44.402Z,70.26
2022-12-27T09:04:10.898Z,70.06
2022-12-27T09:06:40.453Z,69.87
2022-12-27T09:09:07.055Z,69.64
2022-12-27T09:11:34.716Z,71.25
2022-12-27T09:14:03.450Z,71.40
2022-12-27T09:16:31.204Z,69.95
2022-12-27T09:18:59.076Z,71.54
2022-12-27T09:21:29.877Z,70.29
2022-12-27T09:23:56.402Z,70.42
2022-12-27T09:26:26.202Z,70.74
2022-12-27T09:28:53.439Z,67.42
2022-12-27T09:31:21.497Z,65.38
2022-12-27T09:33:48.249Z,60.38
2022-12-27T09:36:20.385Z,62.72
2022-12-27T09:38:47.998Z,61.36
2022-12-27T09:42:33.124Z,60.18
2022-12-27T09:44:30.850Z,58.41
2022-12-27T09:47:25.204Z,57.13
2022-12-27T09:49:56.855Z,56.50
2022-12-27T09:52:29.850Z,53.73
2022-12-27T09:55:05.266Z,54.13
2022-12-27T09:57:44.151Z,52.95
2022-12-27T10:00:34.477Z,50.33
2022-12-27T10:03:06.295Z,50.97
2022-12-27T10:05:36.422Z,48.94
2022-12-27T10:08:34.029Z,52.19
2022-12-27T10:11:38.967Z,53.04
2022-12-27T10:14:05.387Z,51.27
2022-12-27T10:16:45.337Z,49.25
2022-12-27T10:19:23.132Z,48.33
2022-12-27T10:22:33.664Z,47.93
2022-12-27T10:25:03.483Z,51.64
2022-12-27T10:27:30.520Z,54.58
2022-12-27T10:29:59.266Z,57.87
2022-12-27T10:32:26.828Z,58.07
2022-12-27T10:34:57.465Z,55.54
2022-12-27T10:37:23.948Z,56.07
2022-12-27T10:39:50.460Z,54.57
2022-12-27T10:42:38.352Z,54.69
2022-12-27T10:45:32.501Z,53.65
2022-12-27T10:48:41.534Z,50.86
2022-12-27T10:51:16.070Z,48.76
2022-12-27T10:53:45.479Z,49.16
2022-12-27T10:56:20.734Z,49.31
2022-12-27T10:58:58.524Z,51.20
2022-12-27T11:01:28.890Z,52.27
2022-12-27T11:04:19.376Z,51.14
2022-12-27T11:06:51.969Z,56.87
2022-12-27T11:09:18.508Z,57.34
2022-12-27T11:11:44.986Z,56.14
2022-12-27T11:14:17.744Z,53.27
2022-12-27T11:16:45.092Z,51.96
2022-12-27T11:19:27.112Z,54.54
2022-12-27T11:21:55.568Z,56.16
2022-12-27T11:24:22.903Z,54.83
2022-12-27T11:26:53.969Z,50.28
2022-12-27T11:29:23.955Z,50.59
2022-12-27T11:31:52.073Z,54.33
2022-12-27T11:34:26.250Z,54.87
2022-12-27T11:36:56.048Z,53.08
2022-12-27T11:39:47.490Z,55.00
2022-12-27T11:42:19.869Z,52.51
2022-12-27T11:45:09.395Z,50.85
2022-12-27T11:47:48.331Z,49.50
2022-12-27T11:50:32.126Z,54.75
2022-12-27T11:53:20.857Z,56.22
2022-12-27T11:56:09.852Z,55.97
2022-12-27T11:58:58.239Z,54.99
2022-12-27T12:01:30.598Z,56.14
2022-12-27T12:04:33.739Z,55.35
2022-12-27T12:07:21.745Z,54.63
2022-12-27T12:10:13.134Z,54.02
2022-12-27T12:13:08.447Z,55.24
2022-12-27T12:16:09.582Z,58.20
2022-12-27T12:19:10.835Z,62.34
2022-12-27T12:21:51.627Z,63.29
2022-12-27T12:24:18.150Z,60.04
2022-12-27T12:27:00.629Z,60.35
2022-12-27T12:30:04.245Z,58.96
2022-12-27T12:32:52.527Z,58.37
2022-12-27T12:35:46.527Z,58.14
2022-12-27T12:38:27.917Z,58.65
2022-12-27T12:41:28.100Z,63.17
2022-12-27T12:44:13.045Z,62.92
2022-12-27T12:46:56.878Z,63.06
2022-12-27T12:49:52.171Z,59.74
2022-12-27T12:52:32.000Z,59.84
2022-12-27T12:55:13.813Z,59.83
2022-12-27T12:57:56.781Z,59.84
2022-12-27T13:00:42.592Z,60.44
2022-12-27T13:03:11.888Z,63.24
2022-12-27T13:06:07.738Z,63.03
2022-12-27T13:08:47.618Z,63.83
2022-12-27T13:11:42.015Z,63.13
2022-12-27T13:14:39.368Z,65.82
2022-12-27T13:17:24.551Z,65.80
2022-12-27T13:19:57.079Z,64.17
2022-12-27T13:22:42.160Z,62.72
2022-12-27T13:25:46.265Z,62.45
2022-12-27T13:28:24.951Z,63.68
2022-12-27T13:31:02.935Z,63.64
2022-12-27T13:33:44.657Z,65.54
2022-12-27T13:36:32.519Z,65.37
2022-12-27T13:39:25.973Z,64.85
2022-12-27T13:42:19.878Z,62.71
2022-12-27T13:45:18.539Z,63.70
2022-12-27T13:47:54.711Z,62.85
2022-12-27T13:50:27.209Z,64.93
2022-12-27T13:52:59.990Z,64.14
2022-12-27T13:56:51.389Z,64.12
2022-12-27T13:59:36.736Z,65.95
2022-12-27T14:02:37.429Z,65.63
2022-12-27T14:05:35.112Z,67.52
2022-12-27T14:08:26.180Z,67.79
2022-12-27T14:11:00.529Z,67.80
2022-12-27T14:13:40.105Z,68.92
2022-12-27T14:16:12.986Z,70.33
2022-12-27T14:18:39.420Z,70.24
2022-12-27T14:21:39.732Z,68.40
2022-12-27T14:24:52.699Z,64.95
2022-12-27T14:27:25.379Z,64.33
2022-12-27T14:30:00.825Z,64.70
2022-12-27T14:33:01.182Z,66.91
2022-12-27T14:35:52.306Z,67.67
2022-12-27T14:38:46.861Z,69.73
2022-12-27T14:41:45.210Z,70.71
2022-12-27T14:44:49.271Z,71.44
2022-12-27T14:47:35.311Z,73.22
2022-12-27T14:50:36.003Z,73.90
2022-12-27T14:53:27.102Z,74.83
2022-12-27T14:56:07.249Z,75.80
2022-12-27T14:58:57.947Z,76.16
2022-12-27T15:01:48.625Z,77.00
2022-12-27T15:04:18.085Z,77.11
2022-12-27T15:07:15.181Z,76.38
2022-12-27T15:10:00.894Z,77.47
2022-12-27T15:12:48.377Z,79.08
2022-12-27T15:15:19.359Z,78.67
2022-12-27T15:18:06.347Z,80.02
2022-12-27T15:20:59.002Z,79.80
2022-12-27T15:23:36.737Z,80.48
2022-12-27T15:26:47.579Z,79.67
2022-12-27T15:29:46.222Z,79.00
2022-12-27T15:32:39.955Z,79.15
2022-12-27T15:35:19.647Z,79.08
2022-12-27T15:38:06.604Z,81.59
2022-12-27T15:40:33.025Z,84.43
2022-12-27T15:43:24.102Z,85.25
2022-12-27T15:46:34.125Z,85.36
2022-12-27T15:49:07.879Z,85.95
2022-12-27T15:51:43.366Z,86.76
2022-12-27T15:54:34.554Z,85.80
2022-12-27T15:57:16.664Z,86.46
2022-12-27T15:59:54.006Z,86.60
2022-12-27T16:02:37.344Z,86.38
2022-12-27T16:05:33.272Z,85.72
2022-12-27T16:07:59.646Z,84.89
2022-12-27T16:10:38.210Z,84.21
2022-12-27T16:13:04.665Z,84.71
2022-12-27T16:15:34.052Z,85.07
2022-12-27T16:18:03.177Z,85.59
2022-12-27T16:20:31.143Z,86.05
2022-12-27T16:23:02.281Z,86.89
2022-12-27T16:25:41.067Z,86.46
2022-12-27T16:28:16.467Z,85.64
2022-12-27T16:30:47.840Z,86.26
2022-12-27T16:33:26.484Z,86.70
2022-12-27T16:36:24.408Z,87.40
2022-12-27T16:38:56.654Z,87.49
2022-12-27T16:41:35.329Z,87.24
2022-12-27T16:44:01.744Z,86.78
2022-12-27T16:46:49.520Z,86.31
2022-12-27T16:49:51.415Z,87.11
2022-12-27T16:52:40.991Z,86.51
2022-12-27T16:55:13.439Z,87.00
2022-12-27T16:57:43.187Z,86.22
2022-12-27T17:00:43.812Z,86.60
2022-12-27T17:03:22.423Z,85.88
2022-12-27T17:06:22.165Z,85.33
2022-12-27T17:08:36.992Z,85.69
2022-12-27T17:11:25.116Z,87.12
2022-12-27T17:14:25.355Z,87.90
2022-12-27T17:16:59.211Z,88.13
2022-12-27T17:19:44.343Z,88.16
2022-12-27T17:22:14.501Z,87.42
2022-12-27T17:24:42.118Z,87.44
2022-12-27T17:27:34.595Z,86.59
2022-12-27T17:30:23.843Z,87.00
2022-12-27T17:33:25.682Z,86.74
2022-12-27T17:36:18.707Z,87.31
2022-12-27T17:38:55.966Z,87.81
2022-12-27T17:42:22.544Z,87.18
2022-12-27T17:44:54.678Z,86.35
2022-12-27T17:47:39.450Z,87.37
2022-12-27T17:50:12.671Z,87.00
2022-12-27T17:52:57.357Z,87.62
2022-12-27T17:55:45.884Z,86.78
2022-12-27T17:58:16.047Z,86.88
2022-12-27T18:01:01.108Z,86.74
2022-12-27T18:03:42.227Z,87.11
2022-12-27T18:06:08.989Z,87.01
2022-12-27T18:08:36.104Z,86.89
2022-12-27T18:11:05.875Z,86.17
2022-12-27T18:13:37.661Z,86.12
2022-12-27T18:16:15.342Z,85.36
2022-12-27T18:18:47.625Z,85.07
2022-12-27T18:21:23.817Z,84.32
2022-12-27T18:23:52.787Z,84.32
2022-12-27T18:26:22.051Z,84.54
2022-12-27T18:28:48.784Z,83.18
2022-12-27T18:31:42.957Z,84.38
2022-12-27T18:34:42.173Z,83.84
2022-12-27T18:37:13.198Z,84.19
2022-12-27T18:39:48.106Z,84.19
2022-12-27T18:42:39.489Z,83.15
2022-12-27T18:45:20.611Z,84.40
2022-12-27T18:47:50.338Z,84.75
2022-12-27T18:50:20.477Z,84.92
2022-12-27T18:52:51.287Z,84.50
2022-12-27T18:55:27.512Z,84.80
2022-12-27T18:58:20.907Z,84.25
2022-12-27T19:00:55.943Z,83.56
2022-12-27T19:03:22.459Z,83.46
2022-12-27T19:06:03.189Z,85.12
2022-12-27T19:08:33.890Z,84.26
2022-12-27T19:11:02.733Z,85.28
2022-12-27T19:13:40.037Z,84.24
2022-12-27T19:16:06.988Z,85.15
2022-12-27T19:18:38.292Z,85.76
2022-12-27T19:21:06.693Z,84.91
2022-12-27T19:23:38.823Z,85.15
2022-12-27T19:26:17.205Z,84.92
2022-12-27T19:29:00.496Z,85.32
2022-12-27T19:31:27.752Z,85.38
2022-12-27T19:33:59.075Z,86.28
2022-12-27T19:36:37.378Z,86.98
2022-12-27T19:39:10.719Z,86.80
2022-12-27T19:41:38.194Z,86.61
2022-12-27T19:44:05.897Z,85.50
2022-12-27T19:46:32.540Z,85.61
2022-12-27T19:51:47.549Z,85.20
2022-12-27T19:54:20.882Z,85.80
2022-12-27T19:56:47.523Z,85.84
2022-12-27T19:59:32.119Z,86.10
2022-12-27T20:01:58.709Z,87.45
2022-12-27T20:04:25.204Z,87.73
2022-12-27T20:06:51.667Z,89.03
2022-12-27T20:09:19.558Z,89.13
2022-12-27T20:11:46.435Z,88.92
2022-12-27T20:14:14.465Z,88.68
2022-12-27T20:16:41.500Z,88.89
2022-12-27T20:19:11.180Z,88.80
2022-12-27T20:21:39.730Z,89.07
2022-12-27T20:24:13.086Z,91.85
2022-12-27T20:26:40.325Z,89.67
2022-12-27T20:29:06.828Z,89.75
2022-12-27T20:31:34.934Z,88.50
2022-12-27T20:34:03.158Z,88.42
2022-12-27T20:36:29.558Z,88.76
2022-12-27T20:38:56.268Z,90.39
2022-12-27T20:41:23.066Z,90.44
2022-12-27T20:43:57.003Z,91.54
2022-12-27T20:46:23.886Z,91.93
2022-12-27T20:48:50.854Z,91.65
2022-12-27T20:51:19.928Z,90.98
2022-12-27T20:53:49.119Z,90.54
2022-12-27T20:56:15.901Z,90.51
2022-12-27T20:58:42.710Z,90.80
2022-12-27T21:01:14.385Z,90.72
2022-12-27T21:03:41.447Z,91.04
2022-12-27T21:06:15.893Z,90.72
2022-12-27T21:08:47.978Z,90.40
2022-12-27T21:11:24.534Z,91.25
2022-12-27T21:13:52.156Z,91.46
2022-12-27T21:16:23.790Z,91.06
2022-12-27T21:18:50.486Z,90.91
2022-12-27T21:21:20.363Z,91.36
2022-12-27T21:23:47.596Z,90.55
2022-12-27T21:26:16.770Z,91.22
2022-12-27T21:28:44.119Z,90.17
2022-12-27T21:31:15.512Z,89.48
2022-12-27T21:33:42.712Z,90.96
2022-12-27T21:36:13.544Z,90.01
2022-12-27T21:38:40.483Z,89.99
2022-12-27T21:41:15.823Z,90.09
2022-12-27T21:43:43.509Z,90.28
2022-12-27T21:46:21.398Z,90.32
2022-12-27T21:48:49.209Z,90.53
2022-12-27T21:51:18.017Z,92.50
2022-12-27T21:53:45.007Z,90.93
2022-12-27T21:56:12.981Z,91.57
2022-12-27T21:58:40.648Z,91.87
2022-12-27T22:01:16.511Z,91.52
2022-12-27T22:03:46.115Z,90.82
2022-12-27T22:06:14.455Z,90.84
2022-12-27T22:08:42.338Z,91.79
2022-12-27T22:11:12.866Z,92.80
2022-12-27T22:13:39.880Z,93.16
2022-12-27T22:16:11.463Z,92.38
2022-12-27T22:18:41.447Z,96.33
2022-12-27T22:21:09.677Z,94.52
2022-12-27T22:23:39.599Z,95.24
2022-12-27T22:26:10.394Z,94.05
2022-12-27T22:28:36.797Z,93.78
2022-12-27T22:31:11.316Z,94.67
2022-12-27T22:33:38.182Z,93.92
2022-12-27T22:36:23.304Z,94.41
2022-12-27T22:38:50.727Z,94.61
2022-12-27T22:41:24.677Z,93.43
2022-12-27T22:44:12.663Z,93.79
2022-12-27T22:49:26.653Z,93.09
2022-12-27T22:51:53.125Z,92.74
2022-12-27T22:54:19.763Z,94.57
2022-12-27T22:56:46.214Z,94.28
2022-12-27T22:59:14.720Z,93.38
2022-12-27T23:01:42.820Z,92.06
2022-12-27T23:04:12.161Z,93.13
2022-12-27T23:06:40.224Z,93.46
2022-12-27T23:09:07.265Z,93.79
2022-12-27T23:11:37.062Z,93.91
2022-12-27T23:14:11.479Z,93.60
2022-12-27T23:16:45.789Z,94.53
2022-12-27T23:19:17.599Z,94.40
2022-12-27T23:21:44.875Z,93.11
2022-12-27T23:24:11.732Z,92.32
2022-12-27T23:26:39.425Z,93.24
2022-12-27T23:29:06.196Z,92.51
2022-12-27T23:31:33.150Z,95.38
2022-12-27T23:33:59.809Z,97.31
2022-12-27T23:36:27.712Z,96.62
2022-12-27T23:38:55.252Z,95.82
2022-12-27T23:41:24.143Z,94.83
2022-12-27T23:43:54.185Z,94.40
2022-12-27T23:46:34.874Z,93.05
2022-12-27T23:49:03.517Z,92.89
2022-12-27T23:51:31.634Z,92.42
2022-12-27T23:53:58.218Z,92.42
2022-12-27T23:56:27.141Z,93.03
2022-12-27T23:58:55.269Z,94.06
